Lilongwe, Malawi
Current Conditions -  °F | °C
As of 9:00 AM on Friday 19 Dec 2014 (Local Time) from FQLC Reporting Station
Few Clouds Few Clouds  
Wind Chill: 75°   Ceiling: Unl
Heat Index: 75°   Visibility: 6mi
Dew Point: 63°   Wind: 15mph
Humidity: 65%   Direction: 20°NNE
Pressure: 30.15"   Gusts: NA
Location:  13.97°S, 33.8°E
Report Text: FQLC 190700Z 02013KT 9999 FEW020 FEW025CB 24/17 Q1021 RMK CB TO NW
Loading
Personal Weather Stations






























Interactive Weather Map New forecast layout! Learn more

10-Day Weather Forecast

Advertisements
Track Severe Weather on mobile